sensor_id;sensor_type;location;lat;lon;timestamp;P1;durP1;ratioP1;P2;durP2;ratioP2
31132;SDS011;17779;50.942;4.026;2023-04-15T00:01:42;8.68;;;4.28;;
31132;SDS011;17779;50.942;4.026;2023-04-15T00:04:07;10.43;;;4.05;;
31132;SDS011;17779;50.942;4.026;2023-04-15T00:06:33;8.50;;;4.75;;
31132;SDS011;17779;50.942;4.026;2023-04-15T00:09:01;6.32;;;3.92;;
31132;SDS011;17779;50.942;4.026;2023-04-15T00:11:27;6.72;;;3.80;;
31132;SDS011;17779;50.942;4.026;2023-04-15T00:13:53;9.02;;;3.70;;
31132;SDS011;17779;50.942;4.026;2023-04-15T00:16:19;11.65;;;4.15;;
31132;SDS011;17779;50.942;4.026;2023-04-15T00:18:45;8.65;;;4.38;;
31132;SDS011;17779;50.942;4.026;2023-04-15T00:21:11;8.13;;;4.10;;
31132;SDS011;17779;50.942;4.026;2023-04-15T00:23:37;6.60;;;3.78;;
31132;SDS011;17779;50.942;4.026;2023-04-15T00:26:03;8.00;;;4.38;;
31132;SDS011;17779;50.942;4.026;2023-04-15T00:28:28;7.95;;;3.83;;
31132;SDS011;17779;50.942;4.026;2023-04-15T00:33:20;7.30;;;3.40;;
31132;SDS011;17779;50.942;4.026;2023-04-15T00:35:46;6.03;;;3.90;;
31132;SDS011;17779;50.942;4.026;2023-04-15T00:38:12;6.07;;;3.42;;
31132;SDS011;17779;50.942;4.026;2023-04-15T00:40:38;6.72;;;3.70;;
31132;SDS011;17779;50.942;4.026;2023-04-15T00:43:04;10.57;;;3.75;;
31132;SDS011;17779;50.942;4.026;2023-04-15T00:45:30;10.00;;;4.30;;
31132;SDS011;17779;50.942;4.026;2023-04-15T00:47:55;8.27;;;4.20;;
31132;SDS011;17779;50.942;4.026;2023-04-15T00:50:22;7.70;;;4.38;;
31132;SDS011;17779;50.942;4.026;2023-04-15T00:52:48;8.52;;;3.80;;
31132;SDS011;17779;50.942;4.026;2023-04-15T00:55:14;7.40;;;4.10;;
31132;SDS011;17779;50.942;4.026;2023-04-15T00:57:40;9.25;;;4.57;;
31132;SDS011;17779;50.942;4.026;2023-04-15T01:00:06;6.40;;;3.90;;
31132;SDS011;17779;50.942;4.026;2023-04-15T01:02:34;14.38;;;4.60;;
31132;SDS011;17779;50.942;4.026;2023-04-15T01:05:01;8.05;;;4.53;;
31132;SDS011;17779;50.942;4.026;2023-04-15T01:07:28;7.82;;;4.95;;
31132;SDS011;17779;50.942;4.026;2023-04-15T01:09:54;7.85;;;4.65;;
31132;SDS011;17779;50.942;4.026;2023-04-15T01:12:20;9.95;;;5.15;;
31132;SDS011;17779;50.942;4.026;2023-04-15T01:14:45;7.68;;;4.78;;
31132;SDS011;17779;50.942;4.026;2023-04-15T01:17:11;9.52;;;4.90;;
31132;SDS011;17779;50.942;4.026;2023-04-15T01:19:37;14.05;;;5.55;;
31132;SDS011;17779;50.942;4.026;2023-04-15T01:22:04;11.32;;;5.40;;
31132;SDS011;17779;50.942;4.026;2023-04-15T01:24:30;8.73;;;5.28;;
31132;SDS011;17779;50.942;4.026;2023-04-15T01:26:59;9.95;;;5.95;;
31132;SDS011;17779;50.942;4.026;2023-04-15T01:29:25;10.88;;;6.03;;
31132;SDS011;17779;50.942;4.026;2023-04-15T01:31:52;11.35;;;6.45;;
31132;SDS011;17779;50.942;4.026;2023-04-15T01:34:20;12.70;;;6.72;;
31132;SDS011;17779;50.942;4.026;2023-04-15T01:36:46;12.13;;;7.05;;
31132;SDS011;17779;50.942;4.026;2023-04-15T01:39:12;13.13;;;7.57;;
31132;SDS011;17779;50.942;4.026;2023-04-15T01:41:38;11.73;;;6.82;;
31132;SDS011;17779;50.942;4.026;2023-04-15T01:44:07;13.15;;;7.32;;
31132;SDS011;17779;50.942;4.026;2023-04-15T01:46:33;14.30;;;7.55;;
31132;SDS011;17779;50.942;4.026;2023-04-15T01:48:59;13.93;;;7.68;;
31132;SDS011;17779;50.942;4.026;2023-04-15T01:51:25;11.18;;;7.10;;
31132;SDS011;17779;50.942;4.026;2023-04-15T01:53:51;11.43;;;7.00;;
31132;SDS011;17779;50.942;4.026;2023-04-15T01:56:17;10.75;;;6.40;;
31132;SDS011;17779;50.942;4.026;2023-04-15T01:58:43;12.98;;;6.55;;
31132;SDS011;17779;50.942;4.026;2023-04-15T02:01:09;11.07;;;6.50;;
31132;SDS011;17779;50.942;4.026;2023-04-15T02:06:01;11.10;;;6.35;;
31132;SDS011;17779;50.942;4.026;2023-04-15T02:08:28;12.32;;;7.13;;
31132;SDS011;17779;50.942;4.026;2023-04-15T02:10:54;14.32;;;7.25;;
31132;SDS011;17779;50.942;4.026;2023-04-15T02:13:20;12.70;;;7.38;;
31132;SDS011;17779;50.942;4.026;2023-04-15T02:15:47;17.88;;;7.90;;
31132;SDS011;17779;50.942;4.026;2023-04-15T02:18:14;17.83;;;7.63;;
31132;SDS011;17779;50.942;4.026;2023-04-15T02:20:40;12.52;;;6.60;;
31132;SDS011;17779;50.942;4.026;2023-04-15T02:23:07;15.57;;;7.45;;
31132;SDS011;17779;50.942;4.026;2023-04-15T02:25:33;13.40;;;7.43;;
31132;SDS011;17779;50.942;4.026;2023-04-15T02:27:59;19.20;;;8.05;;
31132;SDS011;17779;50.942;4.026;2023-04-15T02:30:25;15.05;;;7.93;;
31132;SDS011;17779;50.942;4.026;2023-04-15T02:32:51;15.57;;;8.25;;
31132;SDS011;17779;50.942;4.026;2023-04-15T02:35:17;17.58;;;8.15;;
31132;SDS011;17779;50.942;4.026;2023-04-15T02:37:45;18.90;;;9.05;;
31132;SDS011;17779;50.942;4.026;2023-04-15T02:40:11;17.13;;;7.72;;
31132;SDS011;17779;50.942;4.026;2023-04-15T02:42:38;15.38;;;8.07;;
31132;SDS011;17779;50.942;4.026;2023-04-15T02:45:05;21.55;;;8.60;;
31132;SDS011;17779;50.942;4.026;2023-04-15T02:47:32;14.45;;;7.55;;
31132;SDS011;17779;50.942;4.026;2023-04-15T02:49:59;14.60;;;8.05;;
31132;SDS011;17779;50.942;4.026;2023-04-15T02:52:26;20.25;;;8.32;;
31132;SDS011;17779;50.942;4.026;2023-04-15T02:54:52;15.45;;;8.23;;
31132;SDS011;17779;50.942;4.026;2023-04-15T02:57:21;15.32;;;8.00;;
31132;SDS011;17779;50.942;4.026;2023-04-15T02:59:47;15.05;;;8.27;;
31132;SDS011;17779;50.942;4.026;2023-04-15T03:02:13;17.75;;;8.65;;
31132;SDS011;17779;50.942;4.026;2023-04-15T03:04:39;18.30;;;8.13;;
31132;SDS011;17779;50.942;4.026;2023-04-15T03:07:05;16.02;;;8.52;;
31132;SDS011;17779;50.942;4.026;2023-04-15T03:09:31;14.52;;;7.85;;
31132;SDS011;17779;50.942;4.026;2023-04-15T03:11:57;14.93;;;8.07;;
31132;SDS011;17779;50.942;4.026;2023-04-15T03:14:23;15.10;;;8.13;;
31132;SDS011;17779;50.942;4.026;2023-04-15T03:16:48;12.77;;;6.70;;
31132;SDS011;17779;50.942;4.026;2023-04-15T03:19:15;15.82;;;7.85;;
31132;SDS011;17779;50.942;4.026;2023-04-15T03:21:41;13.23;;;7.25;;
31132;SDS011;17779;50.942;4.026;2023-04-15T03:24:07;14.40;;;7.57;;
31132;SDS011;17779;50.942;4.026;2023-04-15T03:26:33;14.68;;;7.68;;
31132;SDS011;17779;50.942;4.026;2023-04-15T03:28:59;15.93;;;8.40;;
31132;SDS011;17779;50.942;4.026;2023-04-15T03:31:25;15.10;;;7.45;;
31132;SDS011;17779;50.942;4.026;2023-04-15T03:33:51;12.45;;;7.03;;
31132;SDS011;17779;50.942;4.026;2023-04-15T03:36:16;14.18;;;6.97;;
31132;SDS011;17779;50.942;4.026;2023-04-15T03:38:42;15.27;;;7.93;;
31132;SDS011;17779;50.942;4.026;2023-04-15T03:41:08;13.85;;;7.00;;
31132;SDS011;17779;50.942;4.026;2023-04-15T03:43:34;11.25;;;6.47;;
31132;SDS011;17779;50.942;4.026;2023-04-15T03:46:00;12.73;;;6.28;;
31132;SDS011;17779;50.942;4.026;2023-04-15T03:50:52;11.80;;;5.80;;
31132;SDS011;17779;50.942;4.026;2023-04-15T03:53:18;13.80;;;6.07;;
31132;SDS011;17779;50.942;4.026;2023-04-15T03:55:45;11.13;;;6.40;;
31132;SDS011;17779;50.942;4.026;2023-04-15T04:00:40;13.25;;;7.07;;
31132;SDS011;17779;50.942;4.026;2023-04-15T04:03:06;11.18;;;6.55;;
31132;SDS011;17779;50.942;4.026;2023-04-15T04:05:32;12.65;;;6.57;;
31132;SDS011;17779;50.942;4.026;2023-04-15T04:08:01;11.60;;;6.97;;
31132;SDS011;17779;50.942;4.026;2023-04-15T04:10:27;15.65;;;7.43;;
31132;SDS011;17779;50.942;4.026;2023-04-15T04:12:52;12.95;;;7.13;;
31132;SDS011;17779;50.942;4.026;2023-04-15T04:15:18;12.52;;;7.53;;
31132;SDS011;17779;50.942;4.026;2023-04-15T04:17:44;12.05;;;7.32;;
31132;SDS011;17779;50.942;4.026;2023-04-15T04:20:10;14.00;;;7.82;;
31132;SDS011;17779;50.942;4.026;2023-04-15T04:22:37;12.82;;;7.93;;
31132;SDS011;17779;50.942;4.026;2023-04-15T04:25:04;16.83;;;8.15;;
31132;SDS011;17779;50.942;4.026;2023-04-15T04:27:31;13.20;;;7.75;;
31132;SDS011;17779;50.942;4.026;2023-04-15T04:29:57;12.75;;;7.75;;
31132;SDS011;17779;50.942;4.026;2023-04-15T04:32:22;11.35;;;7.60;;
31132;SDS011;17779;50.942;4.026;2023-04-15T04:34:48;14.38;;;8.65;;
31132;SDS011;17779;50.942;4.026;2023-04-15T04:37:14;14.45;;;7.50;;
31132;SDS011;17779;50.942;4.026;2023-04-15T04:39:40;12.68;;;8.25;;
31132;SDS011;17779;50.942;4.026;2023-04-15T04:42:06;11.25;;;7.47;;
31132;SDS011;17779;50.942;4.026;2023-04-15T04:44:32;11.05;;;7.30;;
31132;SDS011;17779;50.942;4.026;2023-04-15T04:46:57;12.55;;;7.38;;
31132;SDS011;17779;50.942;4.026;2023-04-15T04:49:23;13.88;;;7.63;;
31132;SDS011;17779;50.942;4.026;2023-04-15T04:51:49;17.00;;;8.68;;
31132;SDS011;17779;50.942;4.026;2023-04-15T04:54:15;11.38;;;7.50;;
31132;SDS011;17779;50.942;4.026;2023-04-15T04:56:41;11.70;;;7.63;;
31132;SDS011;17779;50.942;4.026;2023-04-15T04:59:07;13.25;;;7.78;;
31132;SDS011;17779;50.942;4.026;2023-04-15T05:01:33;14.88;;;8.32;;
31132;SDS011;17779;50.942;4.026;2023-04-15T05:03:59;16.70;;;8.40;;
31132;SDS011;17779;50.942;4.026;2023-04-15T05:06:25;13.35;;;8.80;;
31132;SDS011;17779;50.942;4.026;2023-04-15T05:11:17;12.60;;;8.43;;
31132;SDS011;17779;50.942;4.026;2023-04-15T05:13:43;12.52;;;8.32;;
31132;SDS011;17779;50.942;4.026;2023-04-15T05:16:09;11.18;;;8.25;;
31132;SDS011;17779;50.942;4.026;2023-04-15T05:18:34;16.92;;;9.50;;
31132;SDS011;17779;50.942;4.026;2023-04-15T05:21:01;14.25;;;8.82;;
31132;SDS011;17779;50.942;4.026;2023-04-15T05:23:27;17.65;;;9.20;;
31132;SDS011;17779;50.942;4.026;2023-04-15T05:25:52;13.32;;;8.70;;
31132;SDS011;17779;50.942;4.026;2023-04-15T05:28:18;14.07;;;9.00;;
31132;SDS011;17779;50.942;4.026;2023-04-15T05:30:44;18.42;;;8.93;;
31132;SDS011;17779;50.942;4.026;2023-04-15T05:33:10;17.27;;;7.78;;
31132;SDS011;17779;50.942;4.026;2023-04-15T05:35:36;17.95;;;9.35;;
31132;SDS011;17779;50.942;4.026;2023-04-15T05:38:02;14.20;;;8.15;;
31132;SDS011;17779;50.942;4.026;2023-04-15T05:42:57;11.73;;;7.72;;
31132;SDS011;17779;50.942;4.026;2023-04-15T05:45:23;13.00;;;8.65;;
31132;SDS011;17779;50.942;4.026;2023-04-15T05:47:48;13.63;;;8.40;;
31132;SDS011;17779;50.942;4.026;2023-04-15T05:50:17;15.23;;;8.13;;
31132;SDS011;17779;50.942;4.026;2023-04-15T05:52:43;13.50;;;8.20;;
31132;SDS011;17779;50.942;4.026;2023-04-15T05:57:36;12.45;;;7.25;;
31132;SDS011;17779;50.942;4.026;2023-04-15T06:00:03;13.50;;;7.22;;
31132;SDS011;17779;50.942;4.026;2023-04-15T06:02:29;12.80;;;7.57;;
31132;SDS011;17779;50.942;4.026;2023-04-15T06:04:56;12.43;;;7.68;;
31132;SDS011;17779;50.942;4.026;2023-04-15T06:07:22;14.63;;;8.13;;
31132;SDS011;17779;50.942;4.026;2023-04-15T06:09:48;15.48;;;8.25;;
31132;SDS011;17779;50.942;4.026;2023-04-15T06:12:14;11.73;;;7.70;;
31132;SDS011;17779;50.942;4.026;2023-04-15T06:14:41;14.43;;;7.05;;
31132;SDS011;17779;50.942;4.026;2023-04-15T06:17:07;14.15;;;7.90;;
31132;SDS011;17779;50.942;4.026;2023-04-15T06:19:33;11.45;;;7.43;;
31132;SDS011;17779;50.942;4.026;2023-04-15T06:22:00;13.85;;;7.82;;
31132;SDS011;17779;50.942;4.026;2023-04-15T06:24:27;14.73;;;7.50;;
31132;SDS011;17779;50.942;4.026;2023-04-15T06:26:53;12.13;;;7.43;;
31132;SDS011;17779;50.942;4.026;2023-04-15T06:29:19;13.15;;;7.90;;
31132;SDS011;17779;50.942;4.026;2023-04-15T06:31:48;12.70;;;7.15;;
31132;SDS011;17779;50.942;4.026;2023-04-15T06:34:15;12.50;;;8.07;;
31132;SDS011;17779;50.942;4.026;2023-04-15T06:36:41;13.75;;;7.45;;
31132;SDS011;17779;50.942;4.026;2023-04-15T06:39:07;12.10;;;7.85;;
31132;SDS011;17779;50.942;4.026;2023-04-15T06:41:33;13.20;;;7.88;;
31132;SDS011;17779;50.942;4.026;2023-04-15T06:43:59;15.98;;;7.40;;
31132;SDS011;17779;50.942;4.026;2023-04-15T06:46:25;17.02;;;7.97;;
31132;SDS011;17779;50.942;4.026;2023-04-15T06:48:51;12.93;;;7.03;;
31132;SDS011;17779;50.942;4.026;2023-04-15T06:51:17;14.63;;;7.28;;
31132;SDS011;17779;50.942;4.026;2023-04-15T06:53:42;12.63;;;6.70;;
31132;SDS011;17779;50.942;4.026;2023-04-15T06:56:08;16.88;;;6.55;;
31132;SDS011;17779;50.942;4.026;2023-04-15T06:58:34;12.38;;;6.90;;
31132;SDS011;17779;50.942;4.026;2023-04-15T07:01:00;11.52;;;5.97;;
31132;SDS011;17779;50.942;4.026;2023-04-15T07:03:26;12.02;;;6.45;;
31132;SDS011;17779;50.942;4.026;2023-04-15T07:05:52;10.85;;;6.43;;
31132;SDS011;17779;50.942;4.026;2023-04-15T07:08:19;12.32;;;5.40;;
31132;SDS011;17779;50.942;4.026;2023-04-15T07:10:45;16.20;;;6.13;;
31132;SDS011;17779;50.942;4.026;2023-04-15T07:15:37;12.75;;;5.30;;
31132;SDS011;17779;50.942;4.026;2023-04-15T07:20:29;11.05;;;4.97;;
31132;SDS011;17779;50.942;4.026;2023-04-15T07:22:55;14.23;;;6.47;;
31132;SDS011;17779;50.942;4.026;2023-04-15T07:27:47;10.75;;;5.47;;
31132;SDS011;17779;50.942;4.026;2023-04-15T07:30:13;12.60;;;5.53;;
31132;SDS011;17779;50.942;4.026;2023-04-15T07:32:38;13.68;;;6.25;;
31132;SDS011;17779;50.942;4.026;2023-04-15T07:37:30;12.77;;;6.03;;
31132;SDS011;17779;50.942;4.026;2023-04-15T07:39:56;12.50;;;5.35;;
31132;SDS011;17779;50.942;4.026;2023-04-15T07:42:22;17.83;;;6.20;;
31132;SDS011;17779;50.942;4.026;2023-04-15T07:44:48;12.63;;;7.03;;
31132;SDS011;17779;50.942;4.026;2023-04-15T07:47:14;15.45;;;6.50;;
31132;SDS011;17779;50.942;4.026;2023-04-15T07:49:40;13.57;;;6.10;;
31132;SDS011;17779;50.942;4.026;2023-04-15T07:52:07;15.90;;;6.03;;
31132;SDS011;17779;50.942;4.026;2023-04-15T07:54:33;15.30;;;6.95;;
31132;SDS011;17779;50.942;4.026;2023-04-15T07:56:59;13.05;;;6.75;;
31132;SDS011;17779;50.942;4.026;2023-04-15T08:01:54;11.35;;;6.70;;
31132;SDS011;17779;50.942;4.026;2023-04-15T08:04:19;14.35;;;6.78;;
31132;SDS011;17779;50.942;4.026;2023-04-15T08:06:45;16.75;;;6.75;;
31132;SDS011;17779;50.942;4.026;2023-04-15T08:09:12;17.05;;;7.75;;
31132;SDS011;17779;50.942;4.026;2023-04-15T08:11:37;18.25;;;7.60;;
31132;SDS011;17779;50.942;4.026;2023-04-15T08:14:03;21.27;;;7.20;;
31132;SDS011;17779;50.942;4.026;2023-04-15T08:16:29;17.20;;;7.63;;
31132;SDS011;17779;50.942;4.026;2023-04-15T08:18:55;15.85;;;7.32;;
31132;SDS011;17779;50.942;4.026;2023-04-15T08:21:22;12.55;;;7.07;;
31132;SDS011;17779;50.942;4.026;2023-04-15T08:23:48;14.88;;;7.38;;
31132;SDS011;17779;50.942;4.026;2023-04-15T08:26:15;12.13;;;6.57;;
31132;SDS011;17779;50.942;4.026;2023-04-15T08:28:42;13.90;;;7.43;;
31132;SDS011;17779;50.942;4.026;2023-04-15T08:31:09;17.95;;;7.30;;
31132;SDS011;17779;50.942;4.026;2023-04-15T08:33:37;12.10;;;7.07;;
31132;SDS011;17779;50.942;4.026;2023-04-15T08:36:05;13.27;;;6.97;;
31132;SDS011;17779;50.942;4.026;2023-04-15T08:38:31;13.05;;;7.20;;
31132;SDS011;17779;50.942;4.026;2023-04-15T08:40:59;11.18;;;6.28;;
31132;SDS011;17779;50.942;4.026;2023-04-15T08:43:28;18.75;;;7.22;;
31132;SDS011;17779;50.942;4.026;2023-04-15T08:45:59;14.38;;;8.18;;
31132;SDS011;17779;50.942;4.026;2023-04-15T08:48:31;11.48;;;6.40;;
31132;SDS011;17779;50.942;4.026;2023-04-15T08:50:58;14.02;;;7.05;;
31132;SDS011;17779;50.942;4.026;2023-04-15T08:53:25;14.27;;;7.22;;
31132;SDS011;17779;50.942;4.026;2023-04-15T08:55:53;16.17;;;7.55;;
31132;SDS011;17779;50.942;4.026;2023-04-15T08:58:22;15.50;;;7.88;;
31132;SDS011;17779;50.942;4.026;2023-04-15T09:00:49;16.33;;;7.85;;
31132;SDS011;17779;50.942;4.026;2023-04-15T09:03:15;15.63;;;8.10;;
31132;SDS011;17779;50.942;4.026;2023-04-15T09:08:07;14.48;;;7.68;;
31132;SDS011;17779;50.942;4.026;2023-04-15T09:10:33;14.15;;;7.70;;
31132;SDS011;17779;50.942;4.026;2023-04-15T09:12:59;15.30;;;7.60;;
31132;SDS011;17779;50.942;4.026;2023-04-15T09:15:27;11.50;;;6.78;;
31132;SDS011;17779;50.942;4.026;2023-04-15T09:17:54;13.57;;;7.03;;
31132;SDS011;17779;50.942;4.026;2023-04-15T09:20:20;19.27;;;6.90;;
31132;SDS011;17779;50.942;4.026;2023-04-15T09:22:47;12.65;;;7.15;;
31132;SDS011;17779;50.942;4.026;2023-04-15T09:27:59;13.30;;;6.68;;
31132;SDS011;17779;50.942;4.026;2023-04-15T09:30:29;15.25;;;7.88;;
31132;SDS011;17779;50.942;4.026;2023-04-15T09:32:58;15.15;;;7.25;;
31132;SDS011;17779;50.942;4.026;2023-04-15T09:35:26;14.32;;;6.38;;
31132;SDS011;17779;50.942;4.026;2023-04-15T09:37:52;12.45;;;6.70;;
31132;SDS011;17779;50.942;4.026;2023-04-15T09:40:33;14.10;;;6.57;;
31132;SDS011;17779;50.942;4.026;2023-04-15T09:43:03;12.50;;;6.78;;
31132;SDS011;17779;50.942;4.026;2023-04-15T09:45:30;13.63;;;6.28;;
31132;SDS011;17779;50.942;4.026;2023-04-15T09:47:58;16.17;;;5.88;;
31132;SDS011;17779;50.942;4.026;2023-04-15T09:50:28;11.23;;;5.60;;
31132;SDS011;17779;50.942;4.026;2023-04-15T09:52:54;12.63;;;6.15;;
31132;SDS011;17779;50.942;4.026;2023-04-15T09:55:20;14.77;;;6.00;;
31132;SDS011;17779;50.942;4.026;2023-04-15T10:00:12;11.05;;;5.30;;
31132;SDS011;17779;50.942;4.026;2023-04-15T10:02:38;10.48;;;5.68;;
31132;SDS011;17779;50.942;4.026;2023-04-15T10:05:06;11.10;;;5.50;;
31132;SDS011;17779;50.942;4.026;2023-04-15T10:07:36;13.73;;;5.55;;
31132;SDS011;17779;50.942;4.026;2023-04-15T10:10:03;7.07;;;4.70;;
31132;SDS011;17779;50.942;4.026;2023-04-15T10:12:29;8.60;;;3.90;;
31132;SDS011;17779;50.942;4.026;2023-04-15T10:17:23;8.52;;;3.78;;
31132;SDS011;17779;50.942;4.026;2023-04-15T10:19:52;6.38;;;4.05;;
31132;SDS011;17779;50.942;4.026;2023-04-15T10:22:19;8.90;;;4.53;;
31132;SDS011;17779;50.942;4.026;2023-04-15T10:24:47;7.90;;;4.00;;
31132;SDS011;17779;50.942;4.026;2023-04-15T10:27:15;8.45;;;3.65;;
31132;SDS011;17779;50.942;4.026;2023-04-15T10:29:42;7.18;;;3.13;;
31132;SDS011;17779;50.942;4.026;2023-04-15T10:32:08;6.22;;;3.25;;
31132;SDS011;17779;50.942;4.026;2023-04-15T10:34:34;7.85;;;4.13;;
31132;SDS011;17779;50.942;4.026;2023-04-15T10:37:01;8.27;;;2.80;;
31132;SDS011;17779;50.942;4.026;2023-04-15T10:42:05;7.72;;;3.20;;
31132;SDS011;17779;50.942;4.026;2023-04-15T10:44:31;6.75;;;2.83;;
31132;SDS011;17779;50.942;4.026;2023-04-15T10:49:24;8.07;;;2.70;;
31132;SDS011;17779;50.942;4.026;2023-04-15T10:51:51;6.32;;;2.50;;
31132;SDS011;17779;50.942;4.026;2023-04-15T10:54:31;9.07;;;2.80;;
31132;SDS011;17779;50.942;4.026;2023-04-15T11:00:15;5.65;;;3.05;;
31132;SDS011;17779;50.942;4.026;2023-04-15T11:02:32;7.07;;;2.90;;
31132;SDS011;17779;50.942;4.026;2023-04-15T11:05:06;6.88;;;2.80;;
31132;SDS011;17779;50.942;4.026;2023-04-15T11:12:51;5.50;;;2.38;;
31132;SDS011;17779;50.942;4.026;2023-04-15T11:15:26;5.13;;;2.50;;
31132;SDS011;17779;50.942;4.026;2023-04-15T11:17:53;6.55;;;2.80;;
31132;SDS011;17779;50.942;4.026;2023-04-15T11:20:20;3.85;;;2.40;;
31132;SDS011;17779;50.942;4.026;2023-04-15T11:22:52;5.82;;;2.58;;
31132;SDS011;17779;50.942;4.026;2023-04-15T11:25:24;4.30;;;2.28;;
31132;SDS011;17779;50.942;4.026;2023-04-15T11:27:51;7.93;;;2.60;;
31132;SDS011;17779;50.942;4.026;2023-04-15T11:30:21;4.45;;;2.50;;
31132;SDS011;17779;50.942;4.026;2023-04-15T11:32:49;5.60;;;2.67;;
31132;SDS011;17779;50.942;4.026;2023-04-15T11:35:16;7.32;;;2.55;;
31132;SDS011;17779;50.942;4.026;2023-04-15T11:37:46;6.63;;;3.13;;
31132;SDS011;17779;50.942;4.026;2023-04-15T11:40:13;5.30;;;2.47;;
31132;SDS011;17779;50.942;4.026;2023-04-15T11:42:42;5.10;;;2.65;;
31132;SDS011;17779;50.942;4.026;2023-04-15T11:45:08;5.95;;;2.92;;
31132;SDS011;17779;50.942;4.026;2023-04-15T11:47:38;4.93;;;2.60;;
31132;SDS011;17779;50.942;4.026;2023-04-15T11:52:53;5.32;;;2.42;;
31132;SDS011;17779;50.942;4.026;2023-04-15T11:55:22;2.72;;;1.88;;
31132;SDS011;17779;50.942;4.026;2023-04-15T12:00:38;5.95;;;2.00;;
31132;SDS011;17779;50.942;4.026;2023-04-15T12:03:12;4.38;;;2.40;;
31132;SDS011;17779;50.942;4.026;2023-04-15T12:09:03;5.45;;;2.55;;
31132;SDS011;17779;50.942;4.026;2023-04-15T12:11:40;4.60;;;2.50;;
31132;SDS011;17779;50.942;4.026;2023-04-15T12:14:10;5.65;;;2.58;;
31132;SDS011;17779;50.942;4.026;2023-04-15T12:16:49;3.88;;;2.03;;
31132;SDS011;17779;50.942;4.026;2023-04-15T12:19:21;4.47;;;2.25;;
31132;SDS011;17779;50.942;4.026;2023-04-15T12:21:48;5.13;;;2.53;;
31132;SDS011;17779;50.942;4.026;2023-04-15T12:24:14;4.85;;;2.60;;
31132;SDS011;17779;50.942;4.026;2023-04-15T12:26:45;5.32;;;2.85;;
31132;SDS011;17779;50.942;4.026;2023-04-15T12:29:13;5.75;;;2.97;;
31132;SDS011;17779;50.942;4.026;2023-04-15T12:31:47;6.85;;;3.30;;
31132;SDS011;17779;50.942;4.026;2023-04-15T12:34:14;6.95;;;2.80;;
31132;SDS011;17779;50.942;4.026;2023-04-15T12:39:06;4.45;;;2.33;;
31132;SDS011;17779;50.942;4.026;2023-04-15T12:41:32;6.95;;;2.35;;
31132;SDS011;17779;50.942;4.026;2023-04-15T12:43:58;4.70;;;2.25;;
31132;SDS011;17779;50.942;4.026;2023-04-15T12:48:50;7.80;;;2.40;;
31132;SDS011;17779;50.942;4.026;2023-04-15T12:51:18;8.15;;;2.50;;
31132;SDS011;17779;50.942;4.026;2023-04-15T12:53:47;5.32;;;2.63;;
31132;SDS011;17779;50.942;4.026;2023-04-15T12:56:14;8.02;;;3.45;;
31132;SDS011;17779;50.942;4.026;2023-04-15T12:58:41;6.72;;;3.40;;
31132;SDS011;17779;50.942;4.026;2023-04-15T13:03:32;5.18;;;3.22;;
31132;SDS011;17779;50.942;4.026;2023-04-15T13:05:58;11.05;;;4.07;;
31132;SDS011;17779;50.942;4.026;2023-04-15T13:08:26;6.85;;;3.30;;
31132;SDS011;17779;50.942;4.026;2023-04-15T13:10:52;5.70;;;3.17;;
31132;SDS011;17779;50.942;4.026;2023-04-15T13:13:17;7.50;;;3.13;;
31132;SDS011;17779;50.942;4.026;2023-04-15T13:15:43;4.63;;;2.42;;
31132;SDS011;17779;50.942;4.026;2023-04-15T13:18:10;4.40;;;2.33;;
31132;SDS011;17779;50.942;4.026;2023-04-15T13:20:35;7.20;;;2.60;;
31132;SDS011;17779;50.942;4.026;2023-04-15T13:23:01;6.07;;;2.90;;
31132;SDS011;17779;50.942;4.026;2023-04-15T13:25:27;7.15;;;3.17;;
31132;SDS011;17779;50.942;4.026;2023-04-15T13:27:52;6.97;;;2.97;;
31132;SDS011;17779;50.942;4.026;2023-04-15T13:30:18;6.82;;;3.45;;
31132;SDS011;17779;50.942;4.026;2023-04-15T13:32:44;6.70;;;2.70;;
31132;SDS011;17779;50.942;4.026;2023-04-15T13:35:10;6.63;;;2.30;;
31132;SDS011;17779;50.942;4.026;2023-04-15T13:37:36;10.15;;;2.78;;
31132;SDS011;17779;50.942;4.026;2023-04-15T13:40:01;11.15;;;2.90;;
31132;SDS011;17779;50.942;4.026;2023-04-15T13:42:27;6.22;;;3.20;;
31132;SDS011;17779;50.942;4.026;2023-04-15T13:44:53;6.10;;;2.40;;
31132;SDS011;17779;50.942;4.026;2023-04-15T13:47:21;6.45;;;2.45;;
31132;SDS011;17779;50.942;4.026;2023-04-15T13:49:46;8.00;;;2.90;;
31132;SDS011;17779;50.942;4.026;2023-04-15T13:52:12;4.45;;;2.65;;
31132;SDS011;17779;50.942;4.026;2023-04-15T13:54:38;7.47;;;3.72;;
31132;SDS011;17779;50.942;4.026;2023-04-15T13:57:04;6.68;;;3.20;;
31132;SDS011;17779;50.942;4.026;2023-04-15T13:59:30;8.02;;;3.30;;
31132;SDS011;17779;50.942;4.026;2023-04-15T14:01:58;6.38;;;2.30;;
31132;SDS011;17779;50.942;4.026;2023-04-15T14:04:23;7.35;;;2.05;;
31132;SDS011;17779;50.942;4.026;2023-04-15T14:06:49;7.53;;;1.73;;
31132;SDS011;17779;50.942;4.026;2023-04-15T14:09:15;7.43;;;1.90;;
31132;SDS011;17779;50.942;4.026;2023-04-15T14:11:41;5.28;;;1.88;;
31132;SDS011;17779;50.942;4.026;2023-04-15T14:14:06;5.00;;;1.83;;
31132;SDS011;17779;50.942;4.026;2023-04-15T14:16:32;9.02;;;2.50;;
31132;SDS011;17779;50.942;4.026;2023-04-15T14:18:59;5.10;;;2.22;;
31132;SDS011;17779;50.942;4.026;2023-04-15T14:21:25;9.30;;;2.72;;
31132;SDS011;17779;50.942;4.026;2023-04-15T14:23:56;5.75;;;3.03;;
31132;SDS011;17779;50.942;4.026;2023-04-15T14:26:22;5.22;;;2.70;;
31132;SDS011;17779;50.942;4.026;2023-04-15T14:28:47;10.30;;;3.08;;
31132;SDS011;17779;50.942;4.026;2023-04-15T14:31:13;6.40;;;2.88;;
31132;SDS011;17779;50.942;4.026;2023-04-15T14:33:39;7.03;;;3.08;;
31132;SDS011;17779;50.942;4.026;2023-04-15T14:36:06;5.95;;;3.22;;
31132;SDS011;17779;50.942;4.026;2023-04-15T14:38:33;6.57;;;3.22;;
31132;SDS011;17779;50.942;4.026;2023-04-15T14:41:05;7.65;;;3.63;;
31132;SDS011;17779;50.942;4.026;2023-04-15T14:43:32;10.15;;;3.90;;
31132;SDS011;17779;50.942;4.026;2023-04-15T14:48:23;8.25;;;3.58;;
31132;SDS011;17779;50.942;4.026;2023-04-15T14:50:49;9.82;;;4.00;;
31132;SDS011;17779;50.942;4.026;2023-04-15T14:53:15;8.38;;;3.60;;
31132;SDS011;17779;50.942;4.026;2023-04-15T14:55:41;6.78;;;3.25;;
31132;SDS011;17779;50.942;4.026;2023-04-15T14:58:07;8.15;;;4.28;;
31132;SDS011;17779;50.942;4.026;2023-04-15T15:00:33;12.85;;;4.53;;
31132;SDS011;17779;50.942;4.026;2023-04-15T15:03:00;7.05;;;4.15;;
31132;SDS011;17779;50.942;4.026;2023-04-15T15:05:26;12.15;;;4.25;;
31132;SDS011;17779;50.942;4.026;2023-04-15T15:07:52;8.68;;;4.30;;
31132;SDS011;17779;50.942;4.026;2023-04-15T15:10:18;10.75;;;4.03;;
31132;SDS011;17779;50.942;4.026;2023-04-15T15:12:46;7.68;;;3.72;;
31132;SDS011;17779;50.942;4.026;2023-04-15T15:15:11;13.70;;;4.38;;
31132;SDS011;17779;50.942;4.026;2023-04-15T15:17:37;11.02;;;4.10;;
31132;SDS011;17779;50.942;4.026;2023-04-15T15:20:03;10.50;;;4.18;;
31132;SDS011;17779;50.942;4.026;2023-04-15T15:22:29;12.15;;;4.63;;
31132;SDS011;17779;50.942;4.026;2023-04-15T15:24:55;9.88;;;4.57;;
31132;SDS011;17779;50.942;4.026;2023-04-15T15:27:24;11.75;;;4.47;;
31132;SDS011;17779;50.942;4.026;2023-04-15T15:29:50;11.15;;;4.07;;
31132;SDS011;17779;50.942;4.026;2023-04-15T15:32:15;13.70;;;4.13;;
31132;SDS011;17779;50.942;4.026;2023-04-15T15:34:41;10.25;;;4.15;;
31132;SDS011;17779;50.942;4.026;2023-04-15T15:37:07;12.30;;;3.85;;
31132;SDS011;17779;50.942;4.026;2023-04-15T15:39:33;9.35;;;2.92;;
31132;SDS011;17779;50.942;4.026;2023-04-15T15:41:59;10.40;;;3.72;;
31132;SDS011;17779;50.942;4.026;2023-04-15T15:44:25;10.40;;;3.35;;
31132;SDS011;17779;50.942;4.026;2023-04-15T15:46:51;9.45;;;3.35;;